Stations météo

Publicité
Metz-Frescaty, France (7090): Température de l'air & dewpoint: 25.10.2020 23:00:00 - 31.10.2020 23:00:00 (CET)Metz-Frescaty, France (7090): Température de l'air -20cm: 25.10.2020 23:00:00 - 31.10.2020 23:00:00 (CET)Metz-Frescaty, France (7090): Vitesse du vent & gusts: 25.10.2020 23:00:00 - 31.10.2020 23:00:00 (CET)Metz-Frescaty, France (7090): Direction du vent: 25.10.2020 23:00:00 - 31.10.2020 23:00:00 (CET)Metz-Frescaty, France (7090): Quantités de précipitations: 25.10.2020 23:00:00 - 31.10.2020 23:00:00 (CET)
Date & Time tt [°C] td [°C] tt -20cm [°C] ff [km/h] ff [knt] fx [km/h] fx [knt] dd rr [mm]
31.10.2020 23:00:00 15,5 8,7 12,7 8 5 28 15 SSW 0,0
31.10.2020 22:00:00 15,4 8,8 12,7 12 7 26 14 SSW 0,0
31.10.2020 21:00:00 13,2 9,6 12,7 10 6 22 12 SSE 0,0
31.10.2020 20:00:00 12,6 9,4 12,7 13 7 23 12 SSE 0,0
31.10.2020 19:00:00 13,4 9,6 12,7 10 5 23 12 S 0,0
31.10.2020 18:00:00 14,2 9,0 12,7 5 3 18 10 S 0,0
31.10.2020 17:00:00 16,7 8,1 12,7 7 4 15 8 S 0,0
31.10.2020 16:00:00 17,7 9,8 12,7 6 3 15 8 SSE 0,0
31.10.2020 15:00:00 17,8 9,2 12,4 10 6 24 13 SSE 0,0
31.10.2020 14:00:00 16,8 9,2 12,2 13 7 23 12 SSE 0,0
31.10.2020 13:00:00 15,9 9,6 12,2 13 7 22 12 SSE 0,0
31.10.2020 12:00:00 14,6 8,8 12,0 16 9 25 13 SSE 0,0
31.10.2020 11:00:00 13,6 8,0 12,0 10 6 19 10 SSE 0,0
31.10.2020 10:00:00 12,4 8,7 12,2 9 5 13 7 S 0,0
31.10.2020 09:00:00 10,8 8,6 12,2 2 1 5 3 SE 0,0
31.10.2020 08:00:00 7,4 6,8 12,2 0 0 4 2 N 0,0
31.10.2020 07:00:00 7,0 6,3 12,4 0 0 4 2 N 0,0
31.10.2020 06:00:00 8,1 7,2 12,4 0 0 2 1 N 0,0
31.10.2020 05:00:00 9,4 8,2 12,5 0 0 3 2 N 0,0
31.10.2020 04:00:00 10,0 8,1 12,5 0 0 5 3 N 0,0
31.10.2020 03:00:00 10,2 7,6 12,5 2 1 6 3 W 0,0
31.10.2020 02:00:00 11,9 7,6 12,7 4 2 9 5 S 0,0
31.10.2020 01:00:00 12,6 7,9 12,5 5 3 9 5 SSW 0,0
31.10.2020 00:00:00 12,7 8,2 12,7 5 3 11 6 SSW 0,0
30.10.2020 23:00:00 12,8 8,5 12,7 4 2 13 7 WSW 0,0
30.10.2020 22:00:00 13,2 8,5 12,7 5 3 13 7 SSW 0,0
30.10.2020 21:00:00 13,3 8,8 12,7 7 4 14 7 SSW 0,0
30.10.2020 20:00:00 13,4 9,3 12,7 6 3 10 5 S 0,0
30.10.2020 19:00:00 13,6 9,2 12,7 7 4 18 10 SW 0,0
30.10.2020 18:00:00 13,9 9,3 12,7 9 5 24 13 WSW 0,0
30.10.2020 17:00:00 14,2 9,4 12,5 7 4 21 12 WSW 0,0
30.10.2020 16:00:00 14,6 9,6 12,5 10 6 23 12 SW 0,0
30.10.2020 15:00:00 14,6 9,8 12,4 13 7 31 17 SW 0,0
30.10.2020 14:00:00 14,9 9,7 12,2 16 9 30 16 SW 0,0
30.10.2020 13:00:00 14,9 10,1 12,2 14 8 30 16 WSW 0,0
30.10.2020 12:00:00 14,6 10,4 12,2 13 7 30 16 SSW 0,0
30.10.2020 11:00:00 14,0 10,6 12,2 13 7 24 13 SSW 0,0
30.10.2020 10:00:00 13,4 10,7 12,2 10 5 24 13 SW 0,0
30.10.2020 09:00:00 13,1 10,8 12,2 13 7 24 13 SSW 0,0
30.10.2020 08:00:00 13,0 10,9 12,0 13 7 29 16 SSW 0,0
30.10.2020 07:00:00 13,2 11,1 12,0 11 6 30 16 SW 0,0
30.10.2020 06:00:00 12,9 11,5 12,0 9 5 22 12 SW 0,2
30.10.2020 05:00:00 13,6 10,8 12,0 11 6 27 15 SW 0,0
30.10.2020 04:00:00 13,8 10,6 12,0 12 7 36 20 SW 0,0
30.10.2020 03:00:00 13,9 10,9 12,0 16 9 30 16 SW 0,0
30.10.2020 02:00:00 13,6 11,3 12,0 13 7 27 15 SW 0,0
30.10.2020 01:00:00 13,2 11,4 12,0 11 6 29 16 SW 0,0
30.10.2020 00:00:00 12,9 11,1 12,0 13 7 31 17 SW 0,0
29.10.2020 23:00:00 12,6 10,8 12,0 11 6 28 15 SSW 0,0
29.10.2020 22:00:00 11,9 10,8 12,0 13 7 31 17 SSW 0,2
29.10.2020 21:00:00 11,8 10,4 12,0 13 7 29 16 SSW 0,0
29.10.2020 20:00:00 11,7 9,9 12,0 13 7 26 14 SSW 0,0
29.10.2020 19:00:00 11,5 9,7 12,0 9 5 28 15 SSW 0,2
29.10.2020 18:00:00 11,7 9,6 12,0 10 6 31 17 SSW 0,2
29.10.2020 17:00:00 12,8 8,3 12,0 13 7 32 17 SW 0,0
29.10.2020 16:00:00 13,1 8,2 11,9 11 6 30 16 WSW 0,0
29.10.2020 15:00:00 12,8 8,5 11,9 14 7 32 18 WSW 0,0
29.10.2020 14:00:00 13,3 8,1 11,7 18 10 32 17 SW 0,0
29.10.2020 13:00:00 13,0 7,7 11,7 14 7 28 15 WSW 0,0
29.10.2020 12:00:00 12,4 7,7 11,7 16 9 33 18 WSW 0,0
29.10.2020 11:00:00 12,2 8,3 11,7 11 6 31 17 WSW 0,0
29.10.2020 10:00:00 11,5 8,2 11,7 15 8 32 17 WSW 0,0
29.10.2020 09:00:00 10,6 8,0 11,7 11 6 29 15 WSW 0,0
29.10.2020 08:00:00 9,9 7,5 11,9 14 7 27 15 WSW 0,0
29.10.2020 07:00:00 9,7 7,5 11,9 15 8 35 19 WSW 0,0
29.10.2020 06:00:00 10,0 7,6 12,0 19 10 37 20 W 0,0
29.10.2020 05:00:00 10,1 7,3 12,0 19 11 53 29 WSW 6,4
29.10.2020 04:00:00 11,6 8,6 12,0 21 11 43 23 WSW 1,2
29.10.2020 03:00:00 12,4 7,7 12,0 21 11 42 23 WSW 0,0
29.10.2020 02:00:00 12,6 7,3 12,2 21 11 50 27 SW 0,0
29.10.2020 01:00:00 12,1 8,4 12,2 16 9 45 24 SW 0,2
29.10.2020 00:00:00 12,1 8,8 12,2 22 12 47 26 SW 0,2
28.10.2020 23:00:00 12,8 8,1 12,2 16 8 40 22 SSW 0,0
28.10.2020 22:00:00 12,9 7,8 12,2 19 11 39 21 SSW 0,0
28.10.2020 21:00:00 12,9 7,3 12,2 16 9 35 19 SSW 0,0
28.10.2020 20:00:00 13,1 7,1 12,2 17 9 38 21 SSW 0,0
28.10.2020 19:00:00 13,1 7,1 12,2 16 9 34 18 SSW 0,0
28.10.2020 18:00:00 13,3 6,6 12,2 13 7 30 16 SSW 0,0
28.10.2020 17:00:00 13,5 5,9 12,2 13 7 31 17 SW 0,0
28.10.2020 16:00:00 14,1 6,2 12,2 13 7 44 24 SW 0,0
28.10.2020 15:00:00 14,6 6,4 12,0 16 9 43 23 SW 0,0
28.10.2020 14:00:00 14,1 6,0 12,0 21 11 41 22 SW 0,0
28.10.2020 13:00:00 14,2 7,3 11,9 15 8 40 22 WSW 0,0
28.10.2020 12:00:00 13,5 7,0 11,7 21 11 45 24 WSW 0,0
28.10.2020 11:00:00 13,2 7,8 11,7 20 11 40 21 SW 0,0
28.10.2020 10:00:00 12,4 9,4 11,7 16 9 36 20 WSW 0,0
28.10.2020 09:00:00 11,8 10,2 11,7 14 8 29 15 SW 0,6
28.10.2020 08:00:00 11,8 10,2 11,7 13 7 23 12 SSW 0,0
28.10.2020 07:00:00 11,4 9,8 11,7 10 5 27 15 SW 0,8
28.10.2020 06:00:00 10,9 10,1 11,7 9 5 29 16 S 0,6
28.10.2020 05:00:00 10,9 9,8 11,7 15 8 33 18 SSW 0,2
28.10.2020 04:00:00 10,5 9,6 11,7 11 6 26 14 S 0,6
28.10.2020 03:00:00 10,3 9,2 11,7 12 7 26 14 S 0,4
28.10.2020 02:00:00 10,2 9,1 11,7 15 8 33 18 S 0,0
28.10.2020 01:00:00 10,7 9,0 11,7 16 9 29 16 S 0,0
28.10.2020 00:00:00 10,4 8,8 11,7 16 9 37 20 S 0,2
27.10.2020 23:00:00 10,5 8,3 11,9 17 9 43 23 S 0,0
27.10.2020 22:00:00 11,4 7,1 11,9 19 10 38 21 S 0,0
27.10.2020 21:00:00 11,4 6,7 11,9 17 9 41 22 S 0,0
27.10.2020 20:00:00 11,2 6,7 11,9 15 8 35 19 S 0,0
27.10.2020 19:00:00 11,3 6,2 11,9 16 9 33 18 S 0,0
27.10.2020 18:00:00 11,4 6,1 11,9 14 8 32 17 S 0,0
27.10.2020 17:00:00 11,6 5,9 11,9 14 7 29 16 S 0,0
27.10.2020 16:00:00 12,3 5,0 11,7 16 9 32 18 S 0,0
27.10.2020 15:00:00 12,3 4,8 11,7 16 9 34 18 SSW 0,0
27.10.2020 14:00:00 12,0 4,5 11,7 21 11 38 21 SSW 0,0
27.10.2020 13:00:00 11,9 5,7 11,7 17 9 35 19 SSW 0,0
27.10.2020 12:00:00 11,2 5,9 11,7 16 9 32 17 SW 0,0
27.10.2020 11:00:00 10,4 5,8 11,7 16 9 33 18 WSW 0,0
27.10.2020 10:00:00 10,5 6,6 11,7 16 9 31 17 SSW 0,0
27.10.2020 09:00:00 9,2 7,3 11,7 13 7 27 15 SW 0,0
27.10.2020 08:00:00 8,9 7,3 11,7 11 6 22 12 SSW 0,0
27.10.2020 07:00:00 8,4 7,3 11,7 7 4 15 8 S 1,0
27.10.2020 06:00:00 8,6 7,1 11,7 8 5 18 10 S 0,0
27.10.2020 05:00:00 8,9 6,5 11,7 11 6 22 12 S 0,0
27.10.2020 04:00:00 8,0 6,3 11,9 8 5 18 10 S 0,0
27.10.2020 03:00:00 8,2 6,2 11,9 10 5 22 12 SSW 0,0
27.10.2020 02:00:00 8,1 5,9 12,0 13 7 23 12 SSW 0,0
27.10.2020 01:00:00 7,1 5,4 12,0 7 4 19 10 S 0,0
27.10.2020 00:00:00 7,6 5,9 12,2 6 3 14 7 SW 0,0
26.10.2020 23:00:00 7,0 5,6 12,2 8 4 11 6 S 0,0
26.10.2020 22:00:00 7,4 5,7 12,4 6 3 14 8 S 0,0
26.10.2020 21:00:00 8,1 6,4 12,4 6 4 29 15 S 1,8
26.10.2020 20:00:00 8,6 6,0 12,5 13 7 22 12 W 0,6
26.10.2020 19:00:00 8,9 4,9 12,7 6 4 15 8 S 0,0
26.10.2020 18:00:00 8,2 5,3 12,7 4 2 12 7 SSW 0,2
26.10.2020 17:00:00 10,7 5,4 12,5 8 4 24 13 SW 0,0
26.10.2020 16:00:00 11,2 5,5 12,5 11 6 21 12 SW 0,0
26.10.2020 15:00:00 11,9 5,3 12,4 11 6 34 19 WSW 0,0
26.10.2020 14:00:00 12,9 5,8 12,4 10 6 26 14 WSW 0,0
26.10.2020 13:00:00 11,7 4,4 12,4 16 9 32 17 WSW 0,0
26.10.2020 12:00:00 10,7 6,1 12,4 10 6 35 19 SW 0,0
26.10.2020 11:00:00 10,4 6,5 12,4 12 6 24 13 SW 0,0
26.10.2020 10:00:00 9,9 7,0 12,5 11 6 29 16 SW 0,0
26.10.2020 09:00:00 9,5 7,3 12,5 10 5 24 13 SW 0,0
26.10.2020 08:00:00 9,4 7,3 12,7 9 5 26 14 SW 0,0
26.10.2020 07:00:00 9,5 7,6 12,7 10 5 24 13 SSW 0,0
26.10.2020 06:00:00 9,7 7,8 12,7 10 5 23 12 SW 0,0
26.10.2020 05:00:00 10,2 8,3 12,7 9 5 22 12 SW 0,0
26.10.2020 04:00:00 10,5 8,9 12,7 8 4 21 12 SW 0,0
26.10.2020 03:00:00 10,8 9,6 12,7 12 6 23 12 SW 3,4
26.10.2020 02:00:00 10,6 9,8 12,7 8 5 15 8 S 0,2
26.10.2020 01:00:00 10,4 9,6 12,7 8 5 13 7 SSE 0,0
26.10.2020 00:00:00 10,4 9,6 12,7 8 4 13 7 SSE 0,4
25.10.2020 23:00:00 10,4 9,8 12,9 8 5 17 9 S 0,2

tt = Température de l'air
td = dewpoint
tt -20cm = Température de l'air -20cm
ff = Vitesse du vent
fx = gusts
dd = Direction du vent
rr = Quantités de précipitations

stations d'obs. à proximité